Time;durP1;ratioP1;P1;durP2;ratioP2;P2;SDS_P1;SDS_P2;PMS_P1;PMS_P2;Temp;Humidity;BMP_temperature;BMP_pressure;BME280_temperature;BME280_humidity;BME280_pressure;Samples;Min_cycle;Max_cycle;Signal;HPM_P1;HPM_P2
2022/09/28 00:00:57;;;;;;;;;;;;;;;20.09;52.64;99738.78;7283466;19;153753;-58
2022/09/28 00:03:24;;;;;;;;;;;;;;;20.06;52.76;99733.84;7285817;19;153476;-58
2022/09/28 00:05:51;;;;;;;;;;;;;;;20.07;52.86;99743.94;7285797;19;152055;-57
2022/09/28 00:08:17;;;;;;;;;;;;;;;20.06;53.09;99742.28;7285409;19;152064;-58
2022/09/28 00:10:53;;;;;;;;;;;;;;;20.06;52.77;99747.06;7283522;19;153258;-58
2022/09/28 00:13:19;;;;;;;;;;;;;;;20.05;52.76;99748.19;7283277;19;152252;-57
2022/09/28 00:15:46;;;;;;;;;;;;;;;20.03;52.76;99748.56;7285028;19;152790;-58
2022/09/28 00:18:12;;;;;;;;;;;;;;;20.03;52.78;99742.94;7293128;19;154447;-57
2022/09/28 00:20:39;;;;;;;;;;;;;;;20.03;52.77;99737.34;7285492;19;153632;-58
2022/09/28 00:23:06;;;;;;;;;;;;;;;20.03;52.76;99742.13;7284445;19;153081;-58
2022/09/28 00:25:32;;;;;;;;;;;;;;;20.01;53.13;99738.81;7284424;19;152904;-58
2022/09/28 00:27:59;;;;;;;;;;;;;;;20.01;52.78;99738.81;7286078;19;153206;-58
2022/09/28 00:30:25;;;;;;;;;;;;;;;19.99;52.94;99737.16;7281909;19;154704;-58
2022/09/28 00:32:52;;;;;;;;;;;;;;;19.98;53.00;99732.75;7285895;19;153041;-58
2022/09/28 00:35:19;;;;;;;;;;;;;;;19.97;52.69;99736.69;7283087;19;152249;-57
2022/09/28 00:37:47;;;;;;;;;;;;;;;19.97;52.85;99738.66;7283454;19;153830;-57
2022/09/28 00:40:14;;;;;;;;;;;;;;;19.95;52.77;99730.59;7292137;19;152199;-57
2022/09/28 00:42:41;;;;;;;;;;;;;;;19.94;52.94;99726.13;7285231;19;153639;-58
2022/09/28 00:45:08;;;;;;;;;;;;;;;19.94;53.06;99723.31;7285557;19;152925;-57
2022/09/28 00:47:55;;;;;;;;;;;;;;;19.94;53.33;99722.53;7284050;19;152633;-57
2022/09/28 00:50:27;;;;;;;;;;;;;;;19.94;52.87;99728.13;7282460;19;153228;-58
2022/09/28 00:53:02;;;;;;;;;;;;;;;19.92;53.11;99725.66;7281625;19;151909;-57
2022/09/28 00:55:33;;;;;;;;;;;;;;;19.92;53.09;99724.81;7281583;19;153396;-58
2022/09/28 00:58:02;;;;;;;;;;;;;;;19.91;53.00;99726.81;7283192;19;154754;-58
2022/09/28 01:00:28;;;;;;;;;;;;;;;19.91;53.13;99725.97;7280611;19;154015;-58
2022/09/28 01:02:56;;;;;;;;;;;;;;;19.91;53.03;99729.59;7291418;19;153667;-58
2022/09/28 01:05:23;;;;;;;;;;;;;;;19.89;53.17;99720.72;7284140;19;152520;-58
2022/09/28 01:07:50;;;;;;;;;;;;;;;19.90;53.00;99721.53;7285241;19;153683;-58
2022/09/28 01:10:17;;;;;;;;;;;;;;;19.89;53.45;99726.34;7281546;19;154155;-58
2022/09/28 01:12:43;;;;;;;;;;;;;;;19.88;53.01;99727.47;7281593;19;151998;-58
2022/09/28 01:15:10;;;;;;;;;;;;;;;19.87;53.07;99720.22;7282938;19;153740;-58
2022/09/28 01:17:48;;;;;;;;;;;;;;;19.86;53.32;99715.75;7280655;19;154772;-58
2022/09/28 01:20:14;;;;;;;;;;;;;;;19.86;53.47;99718.56;7284366;19;152056;-58
2022/09/28 01:22:59;;;;;;;;;;;;;;;19.85;52.94;99718.94;7283832;19;153697;-57
2022/09/28 01:25:33;;;;;;;;;;;;;;;19.84;52.92;99718.09;7289266;19;153293;-59
2022/09/28 01:28:08;;;;;;;;;;;;;;;19.84;53.39;99725.69;7283832;19;152573;-57
2022/09/28 01:30:40;;;;;;;;;;;;;;;19.83;53.42;99733.25;7281440;19;153980;-58
2022/09/28 01:33:13;;;;;;;;;;;;;;;19.83;53.32;99732.44;7283418;19;151936;-57
2022/09/28 01:35:46;;;;;;;;;;;;;;;19.81;52.92;99732.75;7283398;19;152790;-58
2022/09/28 01:38:16;;;;;;;;;;;;;;;19.80;53.13;99725.53;7284178;19;154172;-58
2022/09/28 01:40:43;;;;;;;;;;;;;;;19.81;53.03;99729.13;7282579;19;152409;-58
2022/09/28 01:43:21;;;;;;;;;;;;;;;19.79;53.06;99720.25;7284233;19;152699;-57
2022/09/28 01:45:51;;;;;;;;;;;;;;;19.78;53.09;99719.41;7286378;19;153292;-57
2022/09/28 01:48:21;;;;;;;;;;;;;;;19.78;53.43;99715.78;7283093;19;153460;-58
2022/09/28 01:50:52;;;;;;;;;;;;;;;19.78;53.09;99718.59;7281039;19;154551;-56
2022/09/28 01:53:27;;;;;;;;;;;;;;;19.76;53.24;99721.72;7282918;19;152142;-57
2022/09/28 01:55:57;;;;;;;;;;;;;;;19.76;53.08;99729.34;7283782;19;152506;-57
2022/09/28 01:58:31;;;;;;;;;;;;;;;19.75;53.11;99722.91;7282093;19;153696;-57
2022/09/28 02:01:03;;;;;;;;;;;;;;;19.75;53.14;99724.88;7281308;19;151965;-57
2022/09/28 02:03:35;;;;;;;;;;;;;;;19.74;53.11;99724.06;7282545;19;152948;-57
2022/09/28 02:06:10;;;;;;;;;;;;;;;19.73;53.20;99727.19;7280545;19;154383;-57
2022/09/28 02:08:40;;;;;;;;;;;;;;;19.72;53.60;99715.13;7289480;19;152268;-57
2022/09/28 02:11:13;;;;;;;;;;;;;;;19.71;53.57;99721.94;7281010;19;153849;-57
2022/09/28 02:13:43;;;;;;;;;;;;;;;19.70;53.12;99720.28;7283039;19;152934;-57
2022/09/28 02:16:09;;;;;;;;;;;;;;;19.70;53.20;99719.44;7281539;19;152624;-57
2022/09/28 02:18:36;;;;;;;;;;;;;;;19.68;53.35;99716.97;7280859;19;154056;-57
2022/09/28 02:21:10;;;;;;;;;;;;;;;19.67;53.43;99720.91;7282306;19;152065;-58
2022/09/28 02:23:38;;;;;;;;;;;;;;;19.68;53.46;99713.34;7280472;19;153679;-57
2022/09/28 02:26:08;;;;;;;;;;;;;;;19.67;53.43;99720.91;7282220;19;154246;-57
2022/09/28 02:28:34;;;;;;;;;;;;;;;19.67;53.54;99717.31;7277573;19;152207;-57
2022/09/28 02:31:01;;;;;;;;;;;;;;;19.65;53.22;99717.63;7288735;19;152412;-57
2022/09/28 02:33:39;;;;;;;;;;;;;;;19.66;53.68;99724.91;7279087;19;153124;-58
2022/09/28 02:36:06;;;;;;;;;;;;;;;19.65;53.62;99719.63;7282687;19;155355;-57
2022/09/28 02:38:33;;;;;;;;;;;;;;;19.64;53.26;99730.00;7280475;19;153808;-57
2022/09/28 02:41:06;;;;;;;;;;;;;;;19.63;53.33;99725.53;7281695;19;152361;-57
2022/09/28 02:43:51;;;;;;;;;;;;;;;19.62;53.72;99726.72;7280141;19;154461;-57
2022/09/28 02:46:36;;;;;;;;;;;;;;;19.61;53.69;99722.25;7280181;19;154671;-57
2022/09/28 02:49:35;;;;;;;;;;;;;;;19.59;53.59;99732.97;7281950;19;151977;-57
2022/09/28 02:52:20;;;;;;;;;;;;;;;19.60;53.45;99733.78;7277355;19;153510;-57
2022/09/28 02:54:47;;;;;;;;;;;;;;;19.60;53.37;99728.19;7286902;19;153029;-57
2022/09/28 02:57:29;;;;;;;;;;;;;;;19.59;53.64;99732.13;7287084;19;152440;-57
2022/09/28 02:59:55;;;;;;;;;;;;;;;19.59;53.38;99723.75;7293665;19;153715;-57
2022/09/28 03:02:34;;;;;;;;;;;;;;;19.57;53.51;99729.69;7293740;19;154409;-57
2022/09/28 03:05:13;;;;;;;;;;;;;;;19.57;53.38;99731.66;7295191;19;153085;-57
2022/09/28 03:07:40;;;;;;;;;;;;;;;19.56;53.84;99725.25;7294986;19;155656;-57
2022/09/28 03:10:06;;;;;;;;;;;;;;;19.54;53.73;99717.16;7292912;19;152335;-56
2022/09/28 03:12:33;;;;;;;;;;;;;;;19.54;53.46;99725.56;7289165;19;153370;-56
2022/09/28 03:15:06;;;;;;;;;;;;;;;19.54;53.70;99730.34;7293997;19;154237;-57
2022/09/28 03:17:33;;;;;;;;;;;;;;;19.52;53.80;99725.09;7302512;19;152125;-57
2022/09/28 03:19:59;;;;;;;;;;;;;;;19.52;53.84;99732.66;7291784;19;155002;-56
2022/09/28 03:22:26;;;;;;;;;;;;;;;19.52;53.63;99739.09;7291904;19;151840;-57
2022/09/28 03:24:53;;;;;;;;;;;;;;;19.52;53.94;99729.84;7294416;19;152602;-56
2022/09/28 03:27:19;;;;;;;;;;;;;;;19.52;53.64;99727.06;7294085;19;153730;-57
2022/09/28 03:29:46;;;;;;;;;;;;;;;19.51;53.64;99725.41;7293465;19;153074;-57
2022/09/28 03:32:12;;;;;;;;;;;;;;;19.51;53.59;99728.19;7294096;19;152687;-57
2022/09/28 03:34:39;;;;;;;;;;;;;;;19.50;54.01;99734.97;7292065;19;154818;-56
2022/09/28 03:37:06;;;;;;;;;;;;;;;19.50;53.68;99729.34;7296032;19;151708;-56
2022/09/28 03:39:32;;;;;;;;;;;;;;;19.49;53.75;99736.09;7300013;19;153616;-57
2022/09/28 03:41:59;;;;;;;;;;;;;;;19.49;53.65;99731.31;7295616;19;152053;-57
2022/09/28 03:44:26;;;;;;;;;;;;;;;19.48;53.84;99726.91;7291045;19;153952;-57
2022/09/28 03:46:53;;;;;;;;;;;;;;;19.48;53.96;99731.69;7294204;19;153709;-57
2022/09/28 03:49:19;;;;;;;;;;;;;;;19.46;53.95;99734.81;7293090;19;152084;-57
2022/09/28 03:51:46;;;;;;;;;;;;;;;19.46;53.73;99733.97;7294043;19;152726;-58
2022/09/28 03:54:13;;;;;;;;;;;;;;;19.44;54.12;99725.88;7291842;19;152361;-58
2022/09/28 03:56:40;;;;;;;;;;;;;;;19.44;54.03;99725.88;7294447;19;152001;-57
2022/09/28 03:59:06;;;;;;;;;;;;;;;19.45;54.02;99737.91;7295175;19;152521;-57
2022/09/28 04:01:33;;;;;;;;;;;;;;;19.45;54.01;99738.75;7291340;19;153169;-57
2022/09/28 04:04:00;;;;;;;;;;;;;;;19.44;53.93;99731.50;7293720;19;153351;-57
2022/09/28 04:06:26;;;;;;;;;;;;;;;19.45;54.24;99735.13;7291938;19;153920;-56
2022/09/28 04:08:53;;;;;;;;;;;;;;;19.43;54.38;99740.22;7286493;19;151707;-57
2022/09/28 04:11:20;;;;;;;;;;;;;;;19.43;54.10;99737.41;7286392;19;153607;-56
2022/09/28 04:13:48;;;;;;;;;;;;;;;19.44;54.30;99739.09;7281698;19;153738;-57
2022/09/28 04:16:15;;;;;;;;;;;;;;;19.44;54.12;99739.09;7287161;19;152073;-56
2022/09/28 04:18:41;;;;;;;;;;;;;;;19.42;53.87;99742.19;7285836;19;153122;-57
2022/09/28 04:21:11;;;;;;;;;;;;;;;19.40;53.98;99738.88;7292867;19;154655;-56
2022/09/28 04:23:38;;;;;;;;;;;;;;;19.40;54.12;99735.25;7283276;19;153720;-56
2022/09/28 04:26:06;;;;;;;;;;;;;;;19.41;54.22;99742.50;7285547;19;153783;-56
2022/09/28 04:31:20;;;;;;;;;;;;;;;19.49;54.82;99738.91;7285512;19;153665;-57
2022/09/28 04:33:47;;;;;;;;;;;;;;;19.53;55.15;99745.53;7281128;19;153300;-56
2022/09/28 04:36:13;;;;;;;;;;;;;;;19.55;55.52;99737.59;7285883;19;152385;-57
2022/09/28 04:38:40;;;;;;;;;;;;;;;19.57;55.64;99749.31;7284490;19;154045;-57
2022/09/28 04:41:19;;;;;;;;;;;;;;;19.61;55.71;99746.66;7285205;19;154008;-57
2022/09/28 04:43:46;;;;;;;;;;;;;;;19.67;55.85;99750.94;7292535;19;152156;-56
2022/09/28 04:46:13;;;;;;;;;;;;;;;19.72;56.01;99745.97;7283741;19;154074;-56
2022/09/28 04:48:40;;;;;;;;;;;;;;;19.76;56.20;99744.13;7284439;19;152224;-57
2022/09/28 04:51:07;;;;;;;;;;;;;;;19.80;56.55;99738.72;7284989;19;153823;-57
2022/09/28 04:53:38;;;;;;;;;;;;;;;19.86;56.87;99742.97;7282068;19;153563;-56
2022/09/28 04:56:06;;;;;;;;;;;;;;;19.91;56.23;99743.63;7285711;19;151982;-57
2022/09/28 04:58:33;;;;;;;;;;;;;;;19.97;56.77;99745.09;7284488;19;152531;-57
2022/09/28 05:01:02;;;;;;;;;;;;;;;20.01;56.05;99748.06;7281321;19;153988;-56
2022/09/28 05:03:29;;;;;;;;;;;;;;;20.05;56.47;99746.22;7281557;19;153347;-57
2022/09/28 05:06:00;;;;;;;;;;;;;;;20.13;56.21;99745.38;7290777;19;154477;-57
2022/09/28 05:08:27;;;;;;;;;;;;;;;20.19;56.47;99748.81;7283875;19;152493;-57
2022/09/28 05:10:58;;;;;;;;;;;;;;;20.23;55.88;99752.59;7283229;19;152497;-57
2022/09/28 05:13:37;;;;;;;;;;;;;;;20.29;55.82;99752.09;7281933;19;153479;-57
2022/09/28 05:16:03;;;;;;;;;;;;;;;20.35;55.92;99741.53;7284077;19;152479;-57
2022/09/28 05:18:31;;;;;;;;;;;;;;;20.40;55.86;99747.78;7283224;19;153367;-57
2022/09/28 05:20:58;;;;;;;;;;;;;;;20.45;55.51;99746.75;7283474;19;153976;-57
2022/09/28 05:23:24;;;;;;;;;;;;;;;20.50;55.77;99752.19;7283162;19;152941;-57
2022/09/28 05:25:51;;;;;;;;;;;;;;;20.55;55.36;99746.38;7283442;19;153818;-57
2022/09/28 05:28:25;;;;;;;;;;;;;;;20.60;55.55;99753.78;7289621;19;153413;-57
2022/09/28 05:30:56;;;;;;;;;;;;;;;20.66;55.38;99755.25;7283451;19;152220;-57
2022/09/28 05:33:23;;;;;;;;;;;;;;;20.71;55.40;99753.09;7279659;19;153057;-57
2022/09/28 05:35:50;;;;;;;;;;;;;;;20.74;55.39;99748.75;7283152;19;152451;-58
2022/09/28 05:38:22;;;;;;;;;;;;;;;20.79;55.42;99757.00;7283775;19;154344;-57
2022/09/28 05:40:48;;;;;;;;;;;;;;;20.82;55.15;99748.72;7282021;19;154004;-57
2022/09/28 05:43:15;;;;;;;;;;;;;;;20.86;54.96;99755.28;7284146;19;152152;-57
2022/09/28 05:45:42;;;;;;;;;;;;;;;20.90;54.70;99760.22;7283187;19;153753;-57
2022/09/28 05:48:09;;;;;;;;;;;;;;;20.93;54.50;99756.75;7280038;19;154975;-56
2022/09/28 05:50:38;;;;;;;;;;;;;;;20.96;54.06;99762.50;7290627;19;151862;-57
2022/09/28 05:53:07;;;;;;;;;;;;;;;20.98;54.16;99763.00;7282235;19;155192;-56
2022/09/28 05:55:34;;;;;;;;;;;;;;;21.02;53.92;99758.34;7281965;19;153167;-56
2022/09/28 05:58:03;;;;;;;;;;;;;;;21.04;53.57;99763.59;7283360;19;152310;-57
2022/09/28 06:00:30;;;;;;;;;;;;;;;21.07;53.61;99771.34;7280231;19;153849;-57
2022/09/28 06:03:04;;;;;;;;;;;;;;;21.08;53.45;99768.19;7283003;19;152279;-57
2022/09/28 06:05:35;;;;;;;;;;;;;;;21.10;53.68;99765.03;7282912;19;152626;-57
2022/09/28 06:08:03;;;;;;;;;;;;;;;21.12;53.52;99771.16;7282963;19;153589;-57
2022/09/28 06:10:30;;;;;;;;;;;;;;;21.13;53.22;99772.81;7289172;19;152080;-57
2022/09/28 06:12:57;;;;;;;;;;;;;;;21.16;53.37;99774.97;7281233;19;154342;-57
2022/09/28 06:15:26;;;;;;;;;;;;;;;21.15;52.99;99771.31;7283129;19;152358;-57
2022/09/28 06:18:19;;;;;;;;;;;;;;;21.16;52.95;99775.78;7282927;19;153808;-57
2022/09/28 06:20:45;;;;;;;;;;;;;;;21.21;53.10;99781.19;7280986;19;154432;-57
2022/09/28 06:23:12;;;;;;;;;;;;;;;21.20;53.02;99779.56;7283619;19;152603;-57
2022/09/28 06:25:39;;;;;;;;;;;;;;;21.19;52.33;99783.53;7281177;19;153213;-57
2022/09/28 06:28:08;;;;;;;;;;;;;;;21.20;52.55;99787.16;7282495;19;153608;-57
2022/09/28 06:30:37;;;;;;;;;;;;;;;21.18;52.33;99779.06;7281518;19;152563;-56
2022/09/28 06:33:04;;;;;;;;;;;;;;;21.18;51.77;99781.88;7286862;19;153904;-57
2022/09/28 06:35:33;;;;;;;;;;;;;;;21.17;51.67;99787.81;7282141;19;152637;-57
2022/09/28 06:38:00;;;;;;;;;;;;;;;21.03;46.03;99790.06;7282261;19;153300;-56
2022/09/28 06:40:28;;;;;;;;;;;;;;;20.72;43.46;99782.78;7281107;19;153791;-55
2022/09/28 06:43:02;;;;;;;;;;;;;;;20.77;46.05;99793.00;7282622;19;152182;-56
2022/09/28 06:45:29;;;;;;;;;;;;;;;20.80;46.08;99790.31;7281789;19;152835;-55
2022/09/28 06:47:57;;;;;;;;;;;;;;;20.82;46.64;99790.81;7280722;19;153459;-56
2022/09/28 06:50:25;;;;;;;;;;;;;;;20.85;46.99;99789.31;7281845;19;153605;-56
2022/09/28 06:52:52;;;;;;;;;;;;;;;20.85;47.12;99792.13;7281809;19;153442;-55
2022/09/28 06:55:20;;;;;;;;;;;;;;;20.86;47.27;99793.75;7285358;19;154713;-56
2022/09/28 06:57:47;;;;;;;;;;;;;;;20.87;47.29;99803.84;7282421;19;152711;-56
2022/09/28 07:00:14;;;;;;;;;;;;;;;20.88;47.79;99807.47;7278229;19;154690;-56
2022/09/28 07:02:40;;;;;;;;;;;;;;;20.89;47.94;99804.34;7281226;19;152720;-56
2022/09/28 07:05:11;;;;;;;;;;;;;;;20.92;47.73;99808.44;7280644;19;153096;-56
2022/09/28 07:07:39;;;;;;;;;;;;;;;20.92;47.77;99809.28;7280805;19;154087;-56
2022/09/28 07:10:06;;;;;;;;;;;;;;;20.95;47.71;99805.78;7279555;19;153006;-56
2022/09/28 07:12:34;;;;;;;;;;;;;;;20.97;47.67;99808.25;7281258;19;153440;-56
2022/09/28 07:15:01;;;;;;;;;;;;;;;21.04;48.43;99805.72;7276136;19;153355;-59
2022/09/28 07:17:27;;;;;;;;;;;;;;;21.08;48.56;99807.50;7287477;19;152758;-56
2022/09/28 07:19:56;;;;;;;;;;;;;;;21.09;48.41;99803.53;7279003;19;153447;-56
2022/09/28 07:22:30;;;;;;;;;;;;;;;21.12;48.69;99800.03;7281040;19;152215;-56
2022/09/28 07:25:08;;;;;;;;;;;;;;;21.15;48.31;99805.03;7278714;19;152824;-56
2022/09/28 07:27:36;;;;;;;;;;;;;;;21.14;48.01;99805.38;7278830;19;154300;-56
2022/09/28 07:30:04;;;;;;;;;;;;;;;21.14;47.79;99816.59;7280464;19;152840;-56
2022/09/28 07:32:33;;;;;;;;;;;;;;;21.15;48.13;99818.25;7280738;19;153568;-56
2022/09/28 07:35:01;;;;;;;;;;;;;;;21.16;47.96;99817.09;7275308;19;153832;-56
2022/09/28 07:37:28;;;;;;;;;;;;;;;21.15;47.46;99807.84;7280112;19;152086;-56
2022/09/28 07:42:41;;;;;;;;;;;;;;;21.16;47.55;99808.66;7278229;19;152195;-56
2022/09/28 07:45:08;;;;;;;;;;;;;;;21.16;47.64;99805.84;7284742;19;152893;-56
2022/09/28 07:47:35;;;;;;;;;;;;;;;21.14;47.61;99797.75;7285839;19;153373;-56
2022/09/28 07:50:02;;;;;;;;;;;;;;;21.14;47.30;99811.81;7286600;19;152038;-56
2022/09/28 07:52:28;;;;;;;;;;;;;;;21.14;47.33;99814.63;7286121;19;154086;-56
2022/09/28 07:54:55;;;;;;;;;;;;;;;21.14;47.63;99813.78;7283060;19;153671;-56
2022/09/28 07:57:22;;;;;;;;;;;;;;;21.12;47.16;99816.91;7286690;19;151883;-57
2022/09/28 07:59:49;;;;;;;;;;;;;;;21.10;47.21;99810.81;7285977;19;154033;-57
2022/09/28 08:02:19;;;;;;;;;;;;;;;21.10;47.38;99818.41;7292466;19;152003;-57
2022/09/28 08:04:57;;;;;;;;;;;;;;;21.09;47.07;99823.19;7285186;19;153026;-58
2022/09/28 08:07:24;;;;;;;;;;;;;;;21.09;47.16;99820.41;7285543;19;153384;-57
2022/09/28 08:09:51;;;;;;;;;;;;;;;21.08;47.39;99812.28;7283894;19;152568;-57
2022/09/28 08:12:18;;;;;;;;;;;;;;;21.08;47.19;99823.53;7286479;19;153540;-57
2022/09/28 08:14:45;;;;;;;;;;;;;;;21.09;47.05;99813.94;7282881;19;154265;-57
2022/09/28 08:17:12;;;;;;;;;;;;;;;21.05;47.36;99825.06;7286106;19;152537;-57
2022/09/28 08:22:24;;;;;;;;;;;;;;;21.05;47.23;99821.41;7292658;19;153426;-56
2022/09/28 08:24:50;;;;;;;;;;;;;;;21.04;47.05;99811.34;7283784;19;153810;-56
2022/09/28 08:27:17;;;;;;;;;;;;;;;21.03;47.54;99823.75;7285811;19;154390;-56
2022/09/28 08:29:44;;;;;;;;;;;;;;;21.03;47.50;99820.94;7284329;19;152775;-56
2022/09/28 08:32:10;;;;;;;;;;;;;;;21.03;47.58;99823.75;7286452;19;152605;-56
2022/09/28 08:34:38;;;;;;;;;;;;;;;21.01;47.57;99821.28;7280719;19;152730;-56
2022/09/28 08:37:15;;;;;;;;;;;;;;;21.01;47.66;99823.25;7235281;19;154461;-56
2022/09/28 08:39:54;;;;;;;;;;;;;;;21.03;47.58;99829.38;7275079;19;152654;-56
2022/09/28 08:42:21;;;;;;;;;;;;;;;21.01;47.56;99824.09;7282002;19;153402;-56
2022/09/28 08:44:56;;;;;;;;;;;;;;;20.99;47.49;99815.16;7289928;19;151915;-55
2022/09/28 08:50:16;;;;;;;;;;;;;;;20.95;47.92;99827.41;7282193;19;152044;-56
2022/09/28 08:52:46;;;;;;;;;;;;;;;20.95;48.09;99824.59;7281514;19;152742;-56
2022/09/28 08:55:16;;;;;;;;;;;;;;;20.93;47.91;99818.53;7277181;19;153344;-57
2022/09/28 08:57:49;;;;;;;;;;;;;;;20.92;48.02;99826.13;7280763;19;153354;-56
2022/09/28 09:00:19;;;;;;;;;;;;;;;20.90;48.02;99821.97;7280946;19;153490;-57
2022/09/28 09:02:46;;;;;;;;;;;;;;;20.90;48.25;99833.22;7281238;19;154211;-57
2022/09/28 09:05:18;;;;;;;;;;;;;;;20.86;48.46;99828.28;7279059;19;152916;-56
2022/09/28 09:07:45;;;;;;;;;;;;;;;20.86;48.21;99828.28;7288127;19;153008;-56
2022/09/28 09:10:19;;;;;;;;;;;;;;;20.85;48.33;99828.63;7281414;19;154074;-57
2022/09/28 09:12:52;;;;;;;;;;;;;;;20.83;48.56;99823.34;7282212;19;153936;-57
2022/09/28 09:15:49;;;;;;;;;;;;;;;20.82;48.28;99827.31;7277622;19;153923;-57
2022/09/28 09:18:21;;;;;;;;;;;;;;;20.82;48.50;99821.69;7280767;19;152846;-56
2022/09/28 09:20:58;;;;;;;;;;;;;;;20.81;48.77;99831.28;7282675;19;153823;-56
2022/09/28 09:23:38;;;;;;;;;;;;;;;20.80;48.48;99821.19;7278846;19;155526;-56
2022/09/28 09:26:11;;;;;;;;;;;;;;;20.79;48.40;99827.19;7280176;19;152266;-56
2022/09/28 09:29:00;;;;;;;;;;;;;;;20.79;48.47;99825.19;7282469;19;152752;-56
2022/09/28 09:31:43;;;;;;;;;;;;;;;20.77;48.93;99824.69;7283026;19;154149;-56
2022/09/28 09:34:19;;;;;;;;;;;;;;;20.77;48.50;99832.28;7275904;19;151680;-56
2022/09/28 09:37:23;;;;;;;;;;;;;;;20.75;48.55;99827.03;7275571;19;153531;-56
2022/09/28 09:40:01;;;;;;;;;;;;;;;20.76;48.29;99828.66;7260678;19;155111;-56
2022/09/28 09:42:48;;;;;;;;;;;;;;;20.75;48.37;99824.22;7281532;19;154068;-56
2022/09/28 09:45:24;;;;;;;;;;;;;;;20.82;48.20;99820.88;7280267;19;154918;-56
2022/09/28 09:47:59;;;;;;;;;;;;;;;20.82;48.38;99818.06;7280757;19;151957;-56
2022/09/28 09:50:32;;;;;;;;;;;;;;;20.85;48.10;99823.00;7281663;19;152994;-56
2022/09/28 09:53:08;;;;;;;;;;;;;;;20.88;48.47;99815.91;7283450;19;154063;-56
2022/09/28 09:55:39;;;;;;;;;;;;;;;20.88;48.53;99813.91;7286332;19;152052;-56
2022/09/28 09:58:12;;;;;;;;;;;;;;;20.92;48.02;99811.25;7282906;19;153429;-56
2022/09/28 10:00:43;;;;;;;;;;;;;;;20.95;48.03;99816.19;7278441;19;153032;-57
2022/09/28 10:03:18;;;;;;;;;;;;;;;20.96;47.90;99806.59;7282833;19;153279;-56
2022/09/28 10:05:47;;;;;;;;;;;;;;;20.99;47.76;99808.72;7281069;19;153357;-56
2022/09/28 10:08:16;;;;;;;;;;;;;;;21.03;47.67;99806.91;7279772;19;152274;-57
2022/09/28 10:10:47;;;;;;;;;;;;;;;21.03;47.70;99809.72;7282097;19;153447;-57
2022/09/28 10:13:14;;;;;;;;;;;;;;;21.06;47.64;99809.03;7282057;19;153738;-56
2022/09/28 10:15:42;;;;;;;;;;;;;;;21.09;47.61;99808.34;7287219;19;152453;-57
2022/09/28 10:18:10;;;;;;;;;;;;;;;21.11;47.80;99806.03;7280521;19;153956;-56
2022/09/28 10:20:38;;;;;;;;;;;;;;;21.13;47.68;99803.72;7283341;19;152022;-56
2022/09/28 10:23:13;;;;;;;;;;;;;;;21.16;47.21;99811.47;7283721;19;153472;-56
2022/09/28 10:25:42;;;;;;;;;;;;;;;21.15;47.56;99807.84;7280739;19;154867;-56
2022/09/28 10:28:10;;;;;;;;;;;;;;;21.16;47.62;99805.84;7283009;19;151952;-56
2022/09/28 10:30:42;;;;;;;;;;;;;;;21.15;47.30;99812.63;7281269;19;153722;-57
2022/09/28 10:33:30;;;;;;;;;;;;;;;21.14;47.35;99811.81;7281487;19;154002;-56
2022/09/28 10:36:03;;;;;;;;;;;;;;;21.16;47.52;99820.72;7279251;19;152423;-56
2022/09/28 10:38:31;;;;;;;;;;;;;;;21.16;47.36;99811.47;7287935;19;152782;-56
2022/09/28 10:40:59;;;;;;;;;;;;;;;21.23;47.48;99814.56;7277952;19;155485;-56
2022/09/28 10:43:44;;;;;;;;;;;;;;;21.25;47.32;99809.44;7281872;19;152731;-57
2022/09/28 10:46:22;;;;;;;;;;;;;;;21.23;47.54;99812.56;7280883;19;153516;-57
2022/09/28 10:48:51;;;;;;;;;;;;;;;21.23;47.23;99808.94;7281320;19;151892;-56
2022/09/28 10:51:18;;;;;;;;;;;;;;;21.22;47.48;99812.91;7282036;19;154388;-56
2022/09/28 10:54:00;;;;;;;;;;;;;;;21.21;47.26;99812.06;7279933;19;154046;-56
2022/09/28 10:56:28;;;;;;;;;;;;;;;21.23;46.91;99812.56;7280284;19;153497;-57
2022/09/28 10:58:56;;;;;;;;;;;;;;;21.22;46.52;99807.28;7280160;19;153075;-57
2022/09/28 11:01:27;;;;;;;;;;;;;;;21.24;46.72;99808.59;7281937;19;153431;-56
2022/09/28 11:03:55;;;;;;;;;;;;;;;21.24;46.46;99810.59;7278001;19;153399;-56
2022/09/28 11:06:34;;;;;;;;;;;;;;;21.21;46.36;99811.28;7280488;19;154038;-56
2022/09/28 11:09:03;;;;;;;;;;;;;;;21.21;46.82;99814.09;7280712;19;151775;-56
2022/09/28 11:11:38;;;;;;;;;;;;;;;21.20;46.60;99813.25;7280484;19;152765;-58
2022/09/28 11:14:16;;;;;;;;;;;;;;;21.21;46.44;99823.31;7279270;19;154330;-57
2022/09/28 11:16:43;;;;;;;;;;;;;;;21.23;46.43;99822.97;7281070;19;152408;-57
2022/09/28 11:19:37;;;;;;;;;;;;;;;21.22;46.75;99818.53;7284482;19;153174;-56
2022/09/28 11:22:19;;;;;;;;;;;;;;;21.17;46.46;99822.34;7285781;19;154791;-57
2022/09/28 11:24:46;;;;;;;;;;;;;;;21.15;46.56;99816.28;7292966;19;152093;-57
2022/09/28 11:27:20;;;;;;;;;;;;;;;21.18;46.75;99823.19;7285907;19;155072;-56
2022/09/28 11:29:55;;;;;;;;;;;;;;;21.15;46.81;99824.69;7286071;19;152682;-56
2022/09/28 11:32:27;;;;;;;;;;;;;;;21.13;46.87;99821.38;7288011;19;153169;-57
2022/09/28 11:34:56;;;;;;;;;;;;;;;21.12;46.65;99816.09;7284483;19;157184;-56
2022/09/28 11:37:31;;;;;;;;;;;;;;;21.13;47.24;99821.38;7285685;19;152933;-56
2022/09/28 11:40:14;;;;;;;;;;;;;;;21.13;46.61;99817.75;7285966;19;153757;-56
2022/09/28 11:42:47;;;;;;;;;;;;;;;21.14;46.92;99814.63;7282113;19;153539;-57
2022/09/28 11:45:14;;;;;;;;;;;;;;;21.17;47.24;99808.31;7285695;19;151971;-57
2022/09/28 11:47:59;;;;;;;;;;;;;;;21.16;47.18;99808.66;7292756;19;153383;-56
2022/09/28 11:50:32;;;;;;;;;;;;;;;21.12;46.90;99807.69;7286306;19;151918;-56
2022/09/28 11:53:10;;;;;;;;;;;;;;;21.10;47.04;99808.00;7286649;19;153375;-56
2022/09/28 11:55:41;;;;;;;;;;;;;;;21.08;47.08;99810.31;7283455;19;153030;-56
2022/09/28 11:58:13;;;;;;;;;;;;;;;21.07;47.16;99811.50;7286994;19;152316;-56
2022/09/28 12:00:46;;;;;;;;;;;;;;;21.06;47.22;99809.03;7285051;19;153403;-56
2022/09/28 12:03:17;;;;;;;;;;;;;;;21.05;47.43;99813.81;7284481;19;152175;-56
2022/09/28 12:05:54;;;;;;;;;;;;;;;21.03;47.46;99806.91;7286936;19;151733;-56
2022/09/28 12:08:24;;;;;;;;;;;;;;;21.02;47.46;99806.06;7284172;19;154554;-56
2022/09/28 12:11:01;;;;;;;;;;;;;;;21.04;47.07;99805.72;7291576;19;153880;-57
2022/09/28 12:13:39;;;;;;;;;;;;;;;21.04;47.14;99803.72;7285216;19;153897;-57
2022/09/28 12:16:19;;;;;;;;;;;;;;;21.04;47.53;99800.09;7281514;19;154246;-56
2022/09/28 12:19:12;;;;;;;;;;;;;;;21.01;47.79;99800.78;7285202;19;151564;-56
2022/09/28 12:21:42;;;;;;;;;;;;;;;21.00;47.58;99802.78;7286003;19;153126;-56
2022/09/28 12:24:08;;;;;;;;;;;;;;;20.98;47.75;99802.31;7283919;19;153501;-56
2022/09/28 12:26:42;;;;;;;;;;;;;;;20.97;47.72;99800.66;7285969;19;153565;-57
2022/09/28 12:29:12;;;;;;;;;;;;;;;20.94;47.54;99795.69;7284250;19;152695;-56
2022/09/28 12:31:51;;;;;;;;;;;;;;;20.92;47.72;99803.66;7288940;19;154438;-56
2022/09/28 12:34:18;;;;;;;;;;;;;;;20.90;47.36;99791.09;7284259;19;152353;-62
2022/09/28 12:36:57;;;;;;;;;;;;;;;20.88;47.66;99791.47;7282330;19;153981;-56
2022/09/28 12:39:26;;;;;;;;;;;;;;;20.87;47.54;99792.63;7284469;19;152467;-58
2022/09/28 12:42:26;;;;;;;;;;;;;;;20.85;47.45;99792.94;7230094;19;157788;-57
2022/09/28 12:44:55;;;;;;;;;;;;;;;20.84;47.71;99787.69;7267828;19;154855;-57
2022/09/28 12:47:25;;;;;;;;;;;;;;;20.82;47.77;99790.00;7278729;19;152706;-56
2022/09/28 12:50:06;;;;;;;;;;;;;;;20.81;47.80;99786.34;7278534;19;153655;-57
2022/09/28 12:53:12;;;;;;;;;;;;;;;20.79;47.70;99782.25;7278930;19;159464;-57
2022/09/28 12:55:45;;;;;;;;;;;;;;;20.78;47.74;99787.03;7283804;19;152920;-56
2022/09/28 12:58:19;;;;;;;;;;;;;;;20.78;47.82;99780.59;7230359;19;153828;-57
2022/09/28 13:00:59;;;;;;;;;;;;;;;20.79;47.86;99777.47;7269280;19;154701;-57
2022/09/28 13:03:36;;;;;;;;;;;;;;;20.75;47.53;99779.31;7276926;19;153438;-56
2022/09/28 13:06:09;;;;;;;;;;;;;;;20.74;47.97;99779.66;7277676;19;154391;-57